Time;durP1;ratioP1;P1;durP2;ratioP2;P2;SDS_P1;SDS_P2;PMS_P1;PMS_P2;Temp;Humidity;BMP_temperature;BMP_pressure;BME280_temperature;BME280_humidity;BME280_pressure;Samples;Min_cycle;Max_cycle;Signal;HPM_P1;HPM_P2
2023/04/21 00:00:25;;;;;;;12.30;9.55;;;10.80;99.90;;;;;;5072550;27;20482;-70
2023/04/21 00:02:52;;;;;;;14.23;9.05;;;10.80;99.90;;;;;;5070926;28;20027;-70
2023/04/21 00:05:18;;;;;;;20.45;9.32;;;10.70;99.90;;;;;;5071065;28;20033;-71
2023/04/21 00:07:44;;;;;;;16.73;10.35;;;10.70;99.90;;;;;;5073015;28;20048;-70
2023/04/21 00:10:10;;;;;;;13.60;9.10;;;10.70;99.90;;;;;;5073041;28;20036;-70
2023/04/21 00:12:37;;;;;;;14.38;8.95;;;10.60;99.90;;;;;;5073270;28;20471;-70
2023/04/21 00:15:03;;;;;;;15.32;9.57;;;10.70;99.90;;;;;;5070676;28;20196;-69
2023/04/21 00:17:30;;;;;;;17.83;9.40;;;10.60;99.90;;;;;;5071672;28;20459;-71
2023/04/21 00:19:56;;;;;;;21.48;9.90;;;10.50;99.90;;;;;;5071733;28;20044;-70
2023/04/21 00:22:22;;;;;;;15.80;10.18;;;10.50;99.90;;;;;;5071791;28;20020;-70
2023/04/21 00:24:48;;;;;;;14.38;9.63;;;10.50;99.90;;;;;;5072261;28;20069;-71
2023/04/21 00:27:14;;;;;;;14.90;9.35;;;10.60;99.90;;;;;;5071599;28;20040;-70
2023/04/21 00:29:40;;;;;;;15.52;9.27;;;10.50;99.90;;;;;;5072690;28;20025;-70
2023/04/21 00:32:08;;;;;;;15.38;9.73;;;10.50;99.90;;;;;;5054188;28;20041;-70
2023/04/21 00:34:35;;;;;;;21.02;9.70;;;10.50;99.90;;;;;;5055094;28;20036;-70
2023/04/21 00:37:01;;;;;;;11.50;9.65;;;10.40;99.90;;;;;;5070706;28;20032;-70
2023/04/21 00:39:27;;;;;;;13.57;9.98;;;10.50;99.90;;;;;;5072003;28;20086;-70
2023/04/21 00:41:53;;;;;;;13.18;8.52;;;10.50;99.90;;;;;;5054718;28;20047;-71
2023/04/21 00:44:19;;;;;;;15.45;10.15;;;10.50;99.90;;;;;;5054598;28;20039;-70
2023/04/21 00:46:47;;;;;;;25.40;10.60;;;10.50;99.90;;;;;;5069579;28;20486;-70
2023/04/21 00:49:13;;;;;;;20.50;10.15;;;10.50;99.90;;;;;;5038384;28;20049;-70
2023/04/21 00:51:39;;;;;;;16.40;10.50;;;10.50;99.90;;;;;;5071316;28;20052;-70
2023/04/21 00:54:07;;;;;;;12.80;9.68;;;10.70;99.90;;;;;;5070342;28;20359;-70
2023/04/21 00:56:33;;;;;;;14.13;10.00;;;10.70;99.90;;;;;;5053121;28;20028;-70
2023/04/21 00:59:00;;;;;;;17.38;10.80;;;10.60;99.90;;;;;;5070457;28;20044;-71
2023/04/21 01:01:36;;;;;;;14.88;10.48;;;10.70;99.90;;;;;;5053166;28;20506;-70
2023/04/21 01:04:03;;;;;;;15.20;10.63;;;10.60;99.90;;;;;;5072346;28;20028;-70
2023/04/21 01:06:31;;;;;;;18.95;11.05;;;10.60;99.90;;;;;;5053884;28;20043;-70
2023/04/21 01:08:57;;;;;;;15.00;10.60;;;10.60;99.90;;;;;;5070443;28;20399;-70
2023/04/21 01:11:23;;;;;;;14.40;10.70;;;10.70;99.90;;;;;;5071122;28;20033;-70
2023/04/21 01:13:55;;;;;;;13.73;11.05;;;10.70;99.90;;;;;;5070161;28;20029;-70
2023/04/21 01:16:25;;;;;;;15.15;10.93;;;10.70;99.90;;;;;;5052371;28;20049;-70
2023/04/21 01:18:52;;;;;;;15.55;10.65;;;10.60;99.90;;;;;;5054974;28;20024;-71
2023/04/21 01:21:19;;;;;;;14.45;10.68;;;10.50;99.90;;;;;;5072019;28;20028;-70
2023/04/21 01:23:45;;;;;;;14.85;9.68;;;10.50;99.90;;;;;;5070895;28;20858;-70
2023/04/21 01:26:11;;;;;;;20.05;10.80;;;10.40;99.90;;;;;;5070044;28;20044;-71
2023/04/21 01:28:37;;;;;;;16.40;10.55;;;10.30;99.90;;;;;;5070265;28;20513;-71
2023/04/21 01:31:04;;;;;;;17.25;10.88;;;10.40;99.90;;;;;;5071115;28;20033;-70
2023/04/21 01:33:30;;;;;;;15.57;10.68;;;10.40;99.90;;;;;;5070749;28;20029;-70
2023/04/21 01:35:56;;;;;;;17.70;11.25;;;10.40;99.90;;;;;;5053536;28;20025;-70
2023/04/21 01:38:22;;;;;;;17.88;10.98;;;10.30;99.90;;;;;;5070818;28;20389;-70
2023/04/21 01:40:50;;;;;;;17.10;10.88;;;10.30;99.90;;;;;;5070630;28;20028;-71
2023/04/21 01:43:17;;;;;;;18.40;11.05;;;10.30;99.90;;;;;;5052696;28;20033;-71
2023/04/21 01:45:43;;;;;;;19.73;11.18;;;10.30;99.90;;;;;;5068846;28;20032;-71
2023/04/21 01:48:09;;;;;;;14.20;10.35;;;10.30;99.90;;;;;;5070082;28;20428;-70
2023/04/21 01:50:35;;;;;;;18.58;11.02;;;10.40;99.90;;;;;;5053366;28;20029;-70
2023/04/21 01:53:01;;;;;;;15.50;10.85;;;10.20;99.90;;;;;;5070489;28;20384;-70
2023/04/21 01:55:28;;;;;;;23.50;11.20;;;10.10;99.90;;;;;;5069771;28;20025;-70
2023/04/21 01:57:56;;;;;;;15.95;11.32;;;10.10;99.90;;;;;;5070476;28;20028;-70
2023/04/21 02:00:22;;;;;;;18.10;10.80;;;10.10;99.90;;;;;;5070436;28;20051;-70
2023/04/21 02:02:48;;;;;;;18.92;11.52;;;10.10;99.90;;;;;;5065025;28;20027;-70
2023/04/21 02:05:14;;;;;;;19.23;12.15;;;10.30;99.90;;;;;;5064583;28;20027;-71
2023/04/21 02:07:40;;;;;;;13.40;10.88;;;10.40;99.90;;;;;;5059586;28;20066;-71
2023/04/21 02:10:07;;;;;;;16.45;11.32;;;10.40;99.90;;;;;;5044500;28;20037;-71
2023/04/21 02:12:33;;;;;;;19.30;10.48;;;10.40;99.90;;;;;;5055657;28;20025;-71
2023/04/21 02:14:59;;;;;;;16.88;11.00;;;10.30;99.90;;;;;;5069537;28;20383;-71
2023/04/21 02:17:25;;;;;;;16.40;11.52;;;10.10;99.90;;;;;;5066796;28;20402;-71
2023/04/21 02:19:51;;;;;;;15.13;11.52;;;10.00;99.90;;;;;;5050094;28;20029;-71
2023/04/21 02:22:17;;;;;;;18.80;11.93;;;10.00;99.90;;;;;;5070244;28;20432;-71
2023/04/21 02:24:43;;;;;;;17.48;11.55;;;9.90;99.90;;;;;;5071555;28;20036;-71
2023/04/21 02:27:09;;;;;;;18.50;12.13;;;10.00;99.90;;;;;;5070636;28;20037;-71
2023/04/21 02:29:36;;;;;;;17.05;11.65;;;10.00;99.90;;;;;;5072111;28;20032;-71
2023/04/21 02:32:02;;;;;;;15.57;10.43;;;9.90;99.90;;;;;;5073165;28;20030;-71
2023/04/21 02:34:28;;;;;;;15.95;11.95;;;9.80;99.90;;;;;;5073336;28;20059;-71
2023/04/21 02:36:54;;;;;;;14.50;11.45;;;9.70;99.90;;;;;;5071037;28;20039;-70
2023/04/21 02:39:20;;;;;;;16.38;12.02;;;9.60;99.90;;;;;;5073384;28;20024;-70
2023/04/21 02:41:46;;;;;;;17.05;11.20;;;9.60;99.90;;;;;;5072910;28;20035;-70
2023/04/21 02:44:12;;;;;;;16.85;12.75;;;9.60;99.90;;;;;;5074398;28;20032;-70
2023/04/21 02:46:40;;;;;;;16.20;10.50;;;9.60;99.90;;;;;;5072961;28;20041;-70
2023/04/21 02:49:06;;;;;;;18.15;11.57;;;9.50;99.90;;;;;;5071925;28;20709;-70
2023/04/21 02:51:32;;;;;;;13.60;11.32;;;9.50;99.90;;;;;;5039946;28;20040;-70
2023/04/21 02:53:58;;;;;;;17.90;11.27;;;9.50;99.90;;;;;;5056390;28;20048;-70
2023/04/21 02:56:25;;;;;;;14.88;10.65;;;9.30;99.90;;;;;;5072640;28;20246;-70
2023/04/21 02:58:51;;;;;;;15.65;11.50;;;9.30;99.90;;;;;;5073293;28;20332;-70
2023/04/21 03:01:17;;;;;;;16.13;11.80;;;9.30;99.90;;;;;;5056461;28;20037;-70
2023/04/21 03:03:43;;;;;;;15.85;11.70;;;9.20;99.90;;;;;;5074248;28;20391;-70
2023/04/21 03:06:09;;;;;;;15.73;12.35;;;9.20;99.90;;;;;;5073557;28;20041;-70
2023/04/21 03:08:35;;;;;;;18.77;11.85;;;9.10;99.90;;;;;;5072313;28;20567;-70
2023/04/21 03:11:01;;;;;;;17.35;12.93;;;9.10;99.90;;;;;;5073258;28;20025;-70
2023/04/21 03:13:27;;;;;;;17.38;13.90;;;9.10;99.90;;;;;;5072580;28;20024;-70
2023/04/21 03:15:53;;;;;;;17.05;12.80;;;9.10;99.90;;;;;;5073665;28;20039;-70
2023/04/21 03:18:19;;;;;;;19.25;13.23;;;9.10;99.90;;;;;;5072257;28;20029;-70
2023/04/21 03:20:45;;;;;;;18.60;12.23;;;9.00;99.90;;;;;;5074075;28;20035;-70
2023/04/21 03:23:11;;;;;;;18.45;9.77;;;9.00;99.90;;;;;;5073092;28;20032;-70
2023/04/21 03:25:38;;;;;;;22.40;13.90;;;9.00;99.90;;;;;;5056062;28;20032;-70
2023/04/21 03:28:04;;;;;;;19.38;13.95;;;9.00;99.90;;;;;;5055245;28;20044;-70
2023/04/21 03:30:30;;;;;;;17.92;13.43;;;9.00;99.90;;;;;;5072202;28;20029;-70
2023/04/21 03:32:57;;;;;;;18.13;13.55;;;9.10;99.90;;;;;;5071780;28;20025;-70
2023/04/21 03:35:23;;;;;;;22.73;14.07;;;9.20;99.90;;;;;;5067766;28;20402;-70
2023/04/21 03:37:49;;;;;;;21.33;14.43;;;9.20;99.90;;;;;;5062501;28;20027;-70
2023/04/21 03:40:15;;;;;;;21.25;13.75;;;9.30;99.90;;;;;;5073134;28;20052;-70
2023/04/21 03:42:42;;;;;;;19.63;13.48;;;9.20;99.90;;;;;;5070867;28;20032;-70
2023/04/21 03:45:08;;;;;;;16.20;11.30;;;9.00;99.90;;;;;;5072880;28;20059;-70
2023/04/21 03:47:34;;;;;;;20.67;13.43;;;8.80;99.90;;;;;;5077506;28;20031;-70
2023/04/21 03:50:03;;;;;;;17.80;13.25;;;8.80;99.90;;;;;;5055681;28;20040;-70
2023/04/21 03:52:29;;;;;;;17.25;14.20;;;8.80;99.90;;;;;;5072459;28;20037;-70
2023/04/21 03:54:55;;;;;;;21.05;13.52;;;8.80;99.90;;;;;;5055124;28;20033;-70
2023/04/21 03:57:21;;;;;;;19.13;13.18;;;8.90;99.90;;;;;;5071379;28;20031;-70
2023/04/21 03:59:47;;;;;;;19.23;13.73;;;8.80;99.90;;;;;;5073327;28;20028;-70
2023/04/21 04:02:14;;;;;;;20.10;15.18;;;8.80;99.90;;;;;;5071871;28;20052;-70
2023/04/21 04:04:40;;;;;;;19.33;14.10;;;9.00;99.90;;;;;;5055490;28;20031;-70
2023/04/21 04:07:07;;;;;;;19.95;14.57;;;9.10;99.90;;;;;;5070975;28;20435;-70
2023/04/21 04:09:33;;;;;;;21.63;15.10;;;9.10;99.90;;;;;;5072573;28;20032;-70
2023/04/21 04:12:02;;;;;;;20.75;14.27;;;9.10;99.90;;;;;;5072404;28;20395;-70
2023/04/21 04:14:28;;;;;;;18.58;14.20;;;9.10;99.90;;;;;;5072866;28;20028;-70
2023/04/21 04:16:55;;;;;;;20.90;14.82;;;9.10;99.90;;;;;;5066201;28;20044;-71
2023/04/21 04:19:21;;;;;;;21.35;14.85;;;9.10;99.90;;;;;;5072889;28;20037;-70
2023/04/21 04:21:47;;;;;;;19.52;13.88;;;9.30;99.90;;;;;;5072107;28;20032;-70
2023/04/21 04:24:14;;;;;;;20.25;15.45;;;9.30;99.90;;;;;;5072427;28;20039;-70
2023/04/21 04:26:40;;;;;;;18.35;14.50;;;9.30;99.90;;;;;;5071890;28;20021;-72
2023/04/21 04:29:09;;;;;;;22.05;14.52;;;9.30;99.90;;;;;;5070742;28;20044;-70
2023/04/21 04:31:35;;;;;;;18.77;14.35;;;9.40;99.90;;;;;;5071479;28;20029;-70
2023/04/21 04:34:02;;;;;;;21.70;14.57;;;9.30;99.90;;;;;;5072698;28;20055;-70
2023/04/21 04:36:28;;;;;;;19.50;14.50;;;9.20;99.90;;;;;;5071962;28;20044;-70
2023/04/21 04:38:55;;;;;;;20.60;15.32;;;9.10;99.90;;;;;;5071439;28;20475;-70
2023/04/21 04:41:21;;;;;;;20.73;15.60;;;9.10;99.90;;;;;;5071143;28;20021;-71
2023/04/21 04:43:47;;;;;;;24.13;14.45;;;9.10;99.90;;;;;;5072291;28;20490;-70
2023/04/21 04:46:13;;;;;;;21.88;15.52;;;8.90;99.90;;;;;;5071871;28;20028;-70
2023/04/21 04:48:39;;;;;;;22.38;15.32;;;8.80;99.90;;;;;;5071284;28;20041;-70
2023/04/21 04:51:05;;;;;;;18.80;15.15;;;8.80;99.90;;;;;;5071085;28;20032;-70
2023/04/21 04:53:31;;;;;;;19.92;14.15;;;8.80;99.90;;;;;;5070427;28;20039;-70
2023/04/21 04:55:58;;;;;;;19.63;14.75;;;8.70;99.90;;;;;;5071295;28;20024;-70
2023/04/21 04:58:24;;;;;;;19.60;15.00;;;8.70;99.90;;;;;;5070432;28;20032;-70
2023/04/21 05:00:50;;;;;;;19.05;14.68;;;8.70;99.90;;;;;;5070831;28;20032;-70
2023/04/21 05:03:16;;;;;;;21.50;14.70;;;8.70;99.90;;;;;;5071445;28;20417;-70
2023/04/21 05:05:44;;;;;;;18.67;14.70;;;8.70;99.90;;;;;;5072223;28;20387;-70
2023/04/21 05:08:10;;;;;;;23.25;15.07;;;8.60;99.90;;;;;;5070903;28;20032;-70
2023/04/21 05:10:36;;;;;;;20.02;14.88;;;8.60;99.90;;;;;;5072096;28;20028;-70
2023/04/21 05:13:02;;;;;;;23.55;14.75;;;8.60;99.90;;;;;;5071536;28;20386;-70
2023/04/21 05:15:28;;;;;;;20.73;15.48;;;8.60;99.90;;;;;;5070802;28;20063;-70
2023/04/21 05:17:54;;;;;;;22.60;15.63;;;8.50;99.90;;;;;;5070145;28;20024;-70
2023/04/21 05:20:20;;;;;;;20.77;15.57;;;8.50;99.90;;;;;;5070855;28;20032;-70
2023/04/21 05:22:46;;;;;;;22.17;15.25;;;8.60;99.90;;;;;;5068689;28;20031;-70
2023/04/21 05:25:14;;;;;;;21.73;15.02;;;8.70;99.90;;;;;;5072074;28;20025;-70
2023/04/21 05:27:41;;;;;;;22.60;15.90;;;8.70;99.90;;;;;;5070976;28;20027;-70
2023/04/21 05:30:08;;;;;;;21.42;15.55;;;8.60;99.90;;;;;;5071500;28;20047;-70
2023/04/21 05:32:34;;;;;;;21.90;15.65;;;8.70;99.90;;;;;;5067909;28;20021;-70
2023/04/21 05:35:00;;;;;;;19.83;16.02;;;8.70;99.90;;;;;;5070428;28;20051;-70
2023/04/21 05:37:26;;;;;;;24.58;15.40;;;8.70;99.90;;;;;;5069688;28;20036;-70
2023/04/21 05:39:52;;;;;;;21.38;16.55;;;8.70;99.90;;;;;;5069422;28;20399;-70
2023/04/21 05:42:18;;;;;;;20.77;15.70;;;8.60;99.90;;;;;;5067461;28;20032;-71
2023/04/21 05:44:44;;;;;;;19.13;15.23;;;8.70;99.90;;;;;;5070613;28;20363;-71
2023/04/21 05:47:10;;;;;;;21.65;15.90;;;8.70;99.90;;;;;;5069543;28;20040;-70
2023/04/21 05:49:36;;;;;;;23.48;15.00;;;8.60;99.90;;;;;;5069542;28;20505;-70
2023/04/21 05:52:02;;;;;;;24.08;15.55;;;8.70;99.90;;;;;;5070275;28;20048;-70
2023/04/21 05:54:28;;;;;;;25.88;15.60;;;8.80;99.90;;;;;;5053137;28;20044;-70
2023/04/21 05:56:55;;;;;;;20.02;15.63;;;8.80;99.90;;;;;;5070526;28;20032;-70
2023/04/21 05:59:21;;;;;;;22.20;15.32;;;8.80;99.90;;;;;;5072105;28;20414;-70
2023/04/21 06:01:49;;;;;;;24.10;16.95;;;9.00;99.90;;;;;;5072134;28;20064;-70
2023/04/21 06:04:15;;;;;;;22.25;14.85;;;9.10;99.90;;;;;;5074230;28;20040;-70
2023/04/21 06:06:41;;;;;;;22.00;14.70;;;9.20;99.90;;;;;;5073139;28;20028;-70
2023/04/21 06:09:07;;;;;;;20.35;15.77;;;9.30;99.90;;;;;;5072295;28;20394;-70
2023/04/21 06:11:33;;;;;;;18.30;13.80;;;9.30;99.90;;;;;;5072935;28;20020;-70
2023/04/21 06:14:00;;;;;;;21.33;13.75;;;9.20;99.90;;;;;;5072334;28;20031;-70
2023/04/21 06:16:26;;;;;;;19.73;13.40;;;9.00;99.90;;;;;;5072693;28;20044;-70
2023/04/21 06:18:53;;;;;;;20.90;15.18;;;9.00;99.90;;;;;;5072884;28;20037;-71
2023/04/21 06:21:19;;;;;;;19.52;15.55;;;9.20;99.90;;;;;;5058247;28;20028;-71
2023/04/21 06:23:45;;;;;;;29.85;15.45;;;9.40;99.90;;;;;;5073957;28;20032;-71
2023/04/21 06:26:12;;;;;;;21.85;14.90;;;9.60;99.90;;;;;;5074816;28;20032;-71
2023/04/21 06:28:38;;;;;;;22.00;14.80;;;9.80;99.90;;;;;;5071385;28;20036;-71
2023/04/21 06:31:05;;;;;;;18.75;15.35;;;10.00;99.90;;;;;;5069602;28;20479;-70
2023/04/21 06:33:31;;;;;;;18.10;14.45;;;10.20;99.90;;;;;;5072309;28;20033;-71
2023/04/21 06:35:57;;;;;;;25.73;13.95;;;10.30;99.90;;;;;;5072120;28;20035;-71
2023/04/21 06:38:23;;;;;;;18.75;15.43;;;10.30;99.90;;;;;;5073263;28;20028;-71
2023/04/21 06:40:50;;;;;;;17.85;14.35;;;10.30;99.90;;;;;;5074138;28;20039;-71
2023/04/21 06:43:16;;;;;;;17.73;13.35;;;10.40;99.90;;;;;;5053770;28;20624;-71
2023/04/21 06:45:42;;;;;;;19.25;14.57;;;10.30;99.90;;;;;;5071502;28;20037;-70
2023/04/21 06:48:08;;;;;;;21.98;15.65;;;10.40;99.90;;;;;;5072150;28;20036;-71
2023/04/21 06:50:35;;;;;;;22.80;15.40;;;10.30;99.90;;;;;;5072890;28;20040;-71
2023/04/21 06:53:01;;;;;;;22.65;15.48;;;10.20;99.90;;;;;;5054916;28;20368;-70
2023/04/21 06:55:28;;;;;;;21.35;15.10;;;10.10;99.90;;;;;;5072461;28;20039;-71
2023/04/21 06:57:56;;;;;;;24.30;15.23;;;10.00;99.90;;;;;;5035586;28;20048;-71
2023/04/21 07:00:23;;;;;;;20.55;15.65;;;10.10;99.90;;;;;;5068344;28;20040;-70
2023/04/21 07:02:49;;;;;;;24.80;16.33;;;10.40;99.90;;;;;;5055393;28;20415;-71
2023/04/21 07:05:15;;;;;;;21.65;15.60;;;10.50;99.90;;;;;;5072820;28;20040;-71
2023/04/21 07:07:41;;;;;;;22.20;15.65;;;10.50;99.90;;;;;;5074214;28;20024;-71
2023/04/21 07:10:08;;;;;;;24.73;16.77;;;10.50;99.90;;;;;;5066308;28;20049;-70
2023/04/21 07:12:34;;;;;;;18.15;14.52;;;10.30;99.90;;;;;;5049968;28;20039;-72
2023/04/21 07:15:00;;;;;;;25.60;17.75;;;10.20;99.90;;;;;;5054863;28;20047;-71
2023/04/21 07:17:26;;;;;;;25.67;17.33;;;10.20;99.90;;;;;;5071286;28;20033;-71
2023/04/21 07:19:52;;;;;;;22.23;17.08;;;10.30;99.90;;;;;;5066740;28;20494;-71
2023/04/21 07:22:18;;;;;;;26.30;17.08;;;10.40;99.90;;;;;;5052845;28;20033;-71
2023/04/21 07:24:44;;;;;;;22.50;16.05;;;10.60;99.90;;;;;;5071573;28;20506;-71
2023/04/21 07:27:10;;;;;;;26.70;17.48;;;10.60;99.90;;;;;;5072889;28;20041;-71
2023/04/21 07:29:36;;;;;;;25.08;17.75;;;10.50;99.90;;;;;;5072679;28;20059;-71
2023/04/21 07:32:03;;;;;;;24.88;18.05;;;10.50;99.90;;;;;;5073670;27;20028;-71
2023/04/21 07:34:29;;;;;;;27.25;18.50;;;10.60;99.90;;;;;;5072430;28;20471;-71
2023/04/21 07:36:55;;;;;;;26.25;17.38;;;10.50;99.90;;;;;;5072940;28;20040;-71
2023/04/21 07:39:21;;;;;;;30.27;20.13;;;10.50;99.90;;;;;;5071766;28;20028;-71
2023/04/21 07:41:47;;;;;;;34.53;18.83;;;10.60;99.90;;;;;;5071536;28;20032;-71
2023/04/21 07:44:13;;;;;;;28.40;19.13;;;10.50;99.90;;;;;;5072509;28;20467;-71
2023/04/21 07:46:40;;;;;;;27.55;17.95;;;10.60;99.90;;;;;;5070025;28;20036;-71
2023/04/21 07:49:06;;;;;;;28.58;18.80;;;10.70;99.90;;;;;;5071469;28;20052;-71
2023/04/21 07:51:32;;;;;;;21.33;14.45;;;10.80;99.90;;;;;;5054918;28;20055;-71
2023/04/21 07:53:58;;;;;;;27.58;18.95;;;10.90;99.90;;;;;;5072634;28;20039;-71
2023/04/21 07:56:24;;;;;;;27.20;18.92;;;11.00;99.90;;;;;;5072460;28;20047;-71
2023/04/21 07:58:50;;;;;;;28.83;19.88;;;11.00;99.90;;;;;;5071317;28;20036;-71
2023/04/21 08:01:16;;;;;;;25.77;18.50;;;10.90;99.90;;;;;;5071548;28;20036;-71
2023/04/21 08:03:43;;;;;;;24.20;14.73;;;10.90;99.90;;;;;;5072132;28;20048;-71
2023/04/21 08:06:09;;;;;;;23.88;16.17;;;10.90;99.90;;;;;;5073184;28;20032;-71
2023/04/21 08:08:35;;;;;;;12.13;8.27;;;11.00;99.90;;;;;;5072142;28;20028;-71
2023/04/21 08:11:01;;;;;;;26.40;18.90;;;11.10;99.90;;;;;;5070797;28;20060;-71
2023/04/21 08:13:28;;;;;;;27.77;19.63;;;11.30;99.90;;;;;;5070319;28;20036;-71
2023/04/21 08:15:54;;;;;;;31.38;20.65;;;11.50;99.90;;;;;;5069698;28;20043;-71
2023/04/21 08:18:20;;;;;;;28.70;18.83;;;11.50;99.90;;;;;;5070954;28;20043;-71
2023/04/21 08:20:46;;;;;;;30.27;21.17;;;11.50;99.90;;;;;;5054300;28;20091;-71
2023/04/21 08:23:15;;;;;;;15.30;10.65;;;11.60;99.90;;;;;;5071625;28;20032;-71
2023/04/21 08:25:42;;;;;;;26.52;19.33;;;11.80;99.90;;;;;;5073002;28;20051;-71
2023/04/21 08:28:08;;;;;;;30.67;21.13;;;11.80;99.90;;;;;;5071043;28;20036;-71
2023/04/21 08:30:34;;;;;;;31.23;20.05;;;11.90;99.90;;;;;;5069028;28;20037;-71
2023/04/21 08:33:00;;;;;;;26.50;18.05;;;11.90;99.90;;;;;;5069724;28;20036;-71
2023/04/21 08:35:26;;;;;;;30.83;21.75;;;12.00;99.90;;;;;;5070016;28;20024;-71
2023/04/21 08:37:52;;;;;;;30.75;21.88;;;12.10;99.90;;;;;;5070351;28;20399;-71
2023/04/21 08:40:18;;;;;;;30.80;22.58;;;12.20;99.90;;;;;;5071859;28;20035;-70
2023/04/21 08:42:45;;;;;;;31.27;21.38;;;12.30;99.90;;;;;;5069644;28;20395;-71
2023/04/21 08:45:11;;;;;;;32.05;22.42;;;12.40;99.90;;;;;;5069829;28;20028;-71
2023/04/21 08:47:39;;;;;;;33.63;22.05;;;12.70;99.90;;;;;;5071368;28;20463;-71
2023/04/21 08:50:06;;;;;;;32.75;21.88;;;12.90;99.90;;;;;;5054010;28;20501;-71
2023/04/21 08:52:32;;;;;;;33.67;22.27;;;13.10;99.90;;;;;;5052767;28;20053;-71
2023/04/21 08:54:58;;;;;;;30.30;21.35;;;12.90;99.90;;;;;;5072268;28;20025;-71
2023/04/21 08:57:24;;;;;;;31.30;21.65;;;13.10;99.90;;;;;;5053990;28;20395;-71
2023/04/21 08:59:51;;;;;;;27.20;18.45;;;13.30;99.90;;;;;;5071256;28;20036;-71
2023/04/21 09:02:20;;;;;;;30.77;19.15;;;13.50;99.90;;;;;;5067521;28;20061;-71
2023/04/21 09:04:50;;;;;;;32.30;20.20;;;13.50;99.90;;;;;;5070851;28;20031;-71
2023/04/21 09:07:35;;;;;;;27.77;19.60;;;13.70;99.90;;;;;;5071525;28;20020;-71
2023/04/21 09:10:02;;;;;;;25.83;18.55;;;13.70;99.90;;;;;;5069068;28;20111;-71
2023/04/21 09:12:28;;;;;;;24.77;16.48;;;13.70;99.90;;;;;;5070210;28;20029;-71
2023/04/21 09:14:54;;;;;;;26.88;18.20;;;13.90;99.90;;;;;;5066570;28;20025;-71
2023/04/21 09:17:27;;;;;;;22.33;18.45;;;13.90;99.90;;;;;;5053076;28;20042;-70
2023/04/21 09:19:53;;;;;;;19.77;13.68;;;13.80;99.90;;;;;;5070611;28;20048;-71
2023/04/21 09:22:19;;;;;;;24.63;16.92;;;13.70;99.90;;;;;;5070534;28;20029;-70
2023/04/21 09:24:49;;;;;;;23.83;17.52;;;13.70;99.90;;;;;;5070846;28;20047;-70
2023/04/21 09:27:18;;;;;;;11.65;9.27;;;13.70;99.90;;;;;;5051851;28;20391;-71
2023/04/21 09:29:47;;;;;;;21.95;16.58;;;13.60;99.90;;;;;;5068722;28;20489;-70
2023/04/21 09:32:18;;;;;;;21.45;17.10;;;13.60;99.90;;;;;;5068385;28;20028;-71
2023/04/21 09:34:44;;;;;;;20.25;15.82;;;13.90;99.90;;;;;;5072196;28;20040;-70
2023/04/21 09:37:11;;;;;;;21.85;16.85;;;14.00;99.90;;;;;;5072819;28;20029;-71
2023/04/21 09:39:37;;;;;;;18.92;13.57;;;14.20;99.90;;;;;;5057522;28;20044;-70
2023/04/21 09:42:03;;;;;;;20.52;15.15;;;14.20;99.90;;;;;;5074333;28;20028;-71
2023/04/21 09:44:29;;;;;;;23.38;17.33;;;14.10;99.90;;;;;;5073799;28;20513;-71
2023/04/21 09:47:05;;;;;;;22.60;18.13;;;14.50;99.90;;;;;;5054659;28;20032;-71
2023/04/21 09:49:34;;;;;;;18.48;15.02;;;14.70;99.90;;;;;;5072566;28;20036;-71
2023/04/21 09:52:00;;;;;;;21.23;15.45;;;14.80;99.90;;;;;;5047116;28;20052;-71
2023/04/21 09:54:31;;;;;;;18.02;15.35;;;14.90;99.90;;;;;;5065231;28;20059;-71
2023/04/21 09:56:58;;;;;;;18.02;15.35;;;15.00;99.90;;;;;;5056317;28;20044;-71
2023/04/21 09:59:26;;;;;;;22.02;15.98;;;15.10;99.90;;;;;;5073029;28;20118;-71
2023/04/21 10:01:52;;;;;;;20.92;16.13;;;15.10;99.90;;;;;;5072342;28;20036;-72
2023/04/21 10:04:18;;;;;;;22.17;16.02;;;15.40;99.90;;;;;;5071102;28;20507;-71
2023/04/21 10:06:46;;;;;;;19.27;16.42;;;15.20;99.90;;;;;;5057256;28;20036;-71
2023/04/21 10:09:13;;;;;;;21.25;16.33;;;15.30;99.90;;;;;;5065467;28;20048;-71
2023/04/21 10:11:39;;;;;;;17.48;14.18;;;15.40;99.90;;;;;;5072535;28;20063;-71
2023/04/21 10:14:06;;;;;;;17.85;14.80;;;15.40;99.90;;;;;;5072064;28;20043;-71
2023/04/21 10:16:32;;;;;;;17.88;15.80;;;15.40;99.90;;;;;;5032100;28;20045;-71
2023/04/21 10:18:58;;;;;;;17.75;15.13;;;15.50;99.90;;;;;;5054774;28;20032;-71
2023/04/21 10:21:24;;;;;;;15.00;12.38;;;15.50;99.90;;;;;;5073096;28;20087;-71
2023/04/21 10:23:52;;;;;;;17.42;13.68;;;15.40;99.50;;;;;;5050893;28;20040;-69
2023/04/21 10:26:25;;;;;;;18.33;14.93;;;15.50;99.70;;;;;;5071022;28;20028;-69
2023/04/21 10:28:59;;;;;;;17.55;14.65;;;15.40;99.60;;;;;;5072064;28;20028;-69
2023/04/21 10:31:49;;;;;;;16.50;14.50;;;15.20;99.70;;;;;;5073446;28;20040;-70
2023/04/21 10:34:16;;;;;;;17.65;15.20;;;15.40;99.90;;;;;;5071564;28;20028;-69
2023/04/21 10:36:45;;;;;;;18.55;15.38;;;15.50;99.00;;;;;;5072170;28;20050;-69
2023/04/21 10:39:26;;;;;;;18.35;15.20;;;15.30;98.90;;;;;;5069949;28;20040;-70
2023/04/21 10:42:19;;;;;;;16.98;13.63;;;15.20;98.30;;;;;;5072113;28;20039;-71
2023/04/21 10:44:56;;;;;;;14.50;13.00;;;15.00;98.30;;;;;;5065241;28;20031;-72
2023/04/21 10:47:25;;;;;;;14.07;12.15;;;14.90;97.70;;;;;;5070794;28;20043;-70
2023/04/21 10:49:51;;;;;;;16.20;12.82;;;14.90;98.10;;;;;;5073191;28;20040;-70
2023/04/21 10:52:19;;;;;;;12.18;9.75;;;15.10;98.00;;;;;;5071065;28;20032;-70
2023/04/21 10:54:45;;;;;;;14.70;13.15;;;15.30;97.80;;;;;;5043384;28;20043;-70
2023/04/21 10:57:16;;;;;;;14.95;12.60;;;15.30;98.00;;;;;;5070983;28;20042;-70
2023/04/21 10:59:42;;;;;;;14.30;12.90;;;15.30;97.80;;;;;;5052164;28;20028;-70
2023/04/21 11:02:11;;;;;;;14.13;12.55;;;15.20;96.90;;;;;;5068182;28;20044;-70
2023/04/21 11:04:43;;;;;;;15.50;13.30;;;15.30;96.10;;;;;;5055129;28;20048;-70
2023/04/21 11:07:13;;;;;;;15.18;10.88;;;15.50;97.00;;;;;;5069898;28;20025;-70
2023/04/21 11:09:40;;;;;;;11.20;10.00;;;15.70;96.70;;;;;;5065802;28;20382;-70
2023/04/21 11:12:08;;;;;;;17.35;13.63;;;15.40;97.00;;;;;;5054566;28;20039;-70
2023/04/21 11:14:35;;;;;;;16.92;14.35;;;15.40;97.40;;;;;;5070183;28;20040;-70
2023/04/21 11:17:01;;;;;;;11.60;10.20;;;15.20;96.60;;;;;;5050551;28;20040;-70
2023/04/21 11:19:28;;;;;;;13.50;10.05;;;15.40;96.90;;;;;;5068716;28;20494;-70
2023/04/21 11:21:54;;;;;;;14.75;12.85;;;15.40;96.20;;;;;;5071287;28;20033;-70
2023/04/21 11:24:20;;;;;;;17.33;13.13;;;15.30;96.60;;;;;;5051367;28;20486;-70
2023/04/21 11:26:46;;;;;;;15.55;12.68;;;15.30;96.90;;;;;;5064910;28;20067;-70
2023/04/21 11:29:13;;;;;;;14.32;11.95;;;15.60;97.30;;;;;;5071641;28;20043;-70
2023/04/21 11:31:44;;;;;;;12.77;10.50;;;15.70;97.00;;;;;;5072697;28;20044;-70
2023/04/21 11:34:10;;;;;;;16.77;13.57;;;15.70;96.40;;;;;;5070065;28;20032;-70
2023/04/21 11:36:39;;;;;;;16.35;13.43;;;15.90;96.40;;;;;;5072404;28;20103;-70
2023/04/21 11:39:09;;;;;;;18.02;12.95;;;15.80;96.50;;;;;;5068198;28;20491;-70
2023/04/21 11:41:39;;;;;;;22.92;13.43;;;15.60;96.40;;;;;;5055312;28;20051;-70
2023/04/21 11:44:06;;;;;;;16.27;12.98;;;15.40;97.50;;;;;;5053740;28;20017;-70
2023/04/21 11:46:32;;;;;;;17.10;13.73;;;15.20;96.90;;;;;;5070959;28;20040;-70
2023/04/21 11:49:05;;;;;;;15.90;13.25;;;15.20;97.10;;;;;;5073118;28;20485;-70
2023/04/21 11:51:36;;;;;;;18.38;13.50;;;15.20;97.20;;;;;;5070631;28;20059;-70
2023/04/21 11:54:03;;;;;;;15.67;13.27;;;15.20;96.90;;;;;;5054830;28;20492;-70
2023/04/21 11:56:29;;;;;;;16.58;13.02;;;15.10;97.10;;;;;;5053115;28;20781;-70
2023/04/21 11:58:55;;;;;;;17.17;14.32;;;15.20;97.80;;;;;;5070466;28;20040;-70
2023/04/21 12:01:21;;;;;;;15.82;13.48;;;15.20;97.40;;;;;;5069524;28;20040;-70
2023/04/21 12:03:54;;;;;;;17.48;12.65;;;15.00;97.60;;;;;;5071495;28;20501;-70
2023/04/21 12:06:25;;;;;;;16.17;13.77;;;15.00;97.70;;;;;;5071159;28;20024;-70
2023/04/21 12:09:15;;;;;;;17.95;14.05;;;15.10;97.50;;;;;;5070526;28;20498;-70
2023/04/21 12:11:41;;;;;;;14.82;13.23;;;15.50;96.60;;;;;;5069934;28;20036;-70
2023/04/21 12:14:07;;;;;;;15.90;11.98;;;15.60;96.50;;;;;;5071003;28;20043;-70
2023/04/21 12:16:35;;;;;;;19.83;13.63;;;15.50;97.00;;;;;;5071065;28;20043;-70
2023/04/21 12:19:01;;;;;;;17.25;13.90;;;15.40;96.60;;;;;;5034009;28;20398;-70
2023/04/21 12:21:28;;;;;;;16.40;12.05;;;15.40;96.90;;;;;;5070682;28;20032;-70
2023/04/21 12:23:54;;;;;;;16.35;12.55;;;15.50;96.70;;;;;;5069858;28;20028;-70
2023/04/21 12:26:21;;;;;;;14.95;13.35;;;15.50;96.70;;;;;;5070817;28;20021;-70
2023/04/21 12:28:47;;;;;;;16.25;13.80;;;15.80;97.30;;;;;;5053895;28;20035;-70